Time;durP1;ratioP1;P1;durP2;ratioP2;P2;SDS_P1;SDS_P2;PMS_P1;PMS_P2;Temp;Humidity;BMP_temperature;BMP_pressure;BME280_temperature;BME280_humidity;BME280_pressure;Samples;Min_cycle;Max_cycle;Signal;HPM_P1;HPM_P2
2021/12/26 00:01:42;;;;;;;0.00;0.00;;;;;20.50;100113.00;;;;5119360;28;20046;-76
2021/12/26 00:04:14;;;;;;;0.00;0.00;;;;;20.50;100107.00;;;;5110307;28;20065;-75
2021/12/26 00:06:45;;;;;;;0.00;0.00;;;;;20.50;100089.00;;;;5117475;28;20040;-76
2021/12/26 00:09:14;;;;;;;0.00;0.00;;;;;20.50;100096.00;;;;5115917;28;20055;-76
2021/12/26 00:11:44;;;;;;;0.00;0.00;;;;;20.40;100094.00;;;;5116727;28;20048;-75
2021/12/26 00:14:13;;;;;;;0.00;0.00;;;;;20.40;100104.00;;;;5115777;28;20080;-77
2021/12/26 00:16:44;;;;;;;0.00;0.00;;;;;20.40;100094.00;;;;5117202;28;20039;-76
2021/12/26 00:19:13;;;;;;;0.40;0.40;;;;;20.20;100094.00;;;;5115209;28;20040;-75
2021/12/26 00:21:43;;;;;;;0.43;0.32;;;;;20.10;100119.00;;;;5104607;28;20047;-76
2021/12/26 00:24:12;;;;;;;0.00;0.00;;;;;20.10;100121.00;;;;5093673;28;20133;-76
2021/12/26 00:26:42;;;;;;;0.10;0.10;;;;;20.00;100108.00;;;;5093465;28;20070;-76
2021/12/26 00:29:12;;;;;;;0.40;0.32;;;;;20.10;100094.00;;;;5109289;28;20062;-78
2021/12/26 00:31:41;;;;;;;0.55;0.20;;;;;20.10;100090.00;;;;5111007;28;20138;-77
2021/12/26 00:34:11;;;;;;;0.00;0.00;;;;;20.00;100092.00;;;;5111810;28;20043;-76
2021/12/26 00:36:40;;;;;;;0.80;0.80;;;;;20.00;100105.00;;;;5109975;28;20555;-76
2021/12/26 00:39:10;;;;;;;0.25;0.25;;;;;19.90;100099.00;;;;5112437;28;20130;-76
2021/12/26 00:41:40;;;;;;;14.48;3.58;;;;;19.90;100081.00;;;;5114863;28;20055;-76
2021/12/26 00:44:10;;;;;;;0.00;0.00;;;;;19.80;100089.00;;;;5113204;28;20048;-78
2021/12/26 00:46:40;;;;;;;6.53;0.98;;;;;19.80;100094.00;;;;5113905;28;20044;-78
2021/12/26 00:49:09;;;;;;;1.13;0.82;;;;;19.80;100103.00;;;;5111397;28;20031;-79
2021/12/26 00:51:39;;;;;;;0.00;0.00;;;;;19.70;100084.00;;;;5110916;28;20048;-77
2021/12/26 00:54:08;;;;;;;0.63;0.63;;;;;19.60;100101.00;;;;5112551;28;20143;-77
2021/12/26 00:56:38;;;;;;;0.40;0.35;;;;;19.50;100084.00;;;;5113112;27;20048;-76
2021/12/26 00:59:08;;;;;;;0.00;0.00;;;;;19.50;100090.00;;;;5110639;28;20048;-78
2021/12/26 01:01:38;;;;;;;0.10;0.10;;;;;19.50;100102.00;;;;5112493;28;20521;-78
2021/12/26 01:04:08;;;;;;;3.50;0.30;;;;;19.40;100088.00;;;;5110969;28;20051;-75
2021/12/26 01:06:41;;;;;;;0.00;0.00;;;;;19.40;100108.00;;;;5110739;28;20062;-77
2021/12/26 01:09:15;;;;;;;0.15;0.15;;;;;19.40;100108.00;;;;5116894;28;20047;-76
2021/12/26 01:11:50;;;;;;;0.22;0.22;;;;;19.40;100104.00;;;;5114731;28;20118;-77
2021/12/26 01:14:28;;;;;;;0.17;0.17;;;;;19.30;100101.00;;;;5108049;28;20036;-79
2021/12/26 01:17:30;;;;;;;5.47;0.47;;;;;19.30;100093.00;;;;5107620;28;20054;-78
2021/12/26 01:20:13;;;;;;;0.15;0.15;;;;;19.30;100107.00;;;;5106194;28;20426;-76
2021/12/26 01:22:43;;;;;;;0.65;0.47;;;;;19.20;100083.00;;;;5100229;28;20399;-79
2021/12/26 01:25:16;;;;;;;17.67;0.93;;;;;19.20;100107.00;;;;5095752;28;20048;-78
2021/12/26 01:27:45;;;;;;;0.10;0.10;;;;;19.10;100094.00;;;;5101659;28;20042;-81
2021/12/26 01:30:15;;;;;;;0.38;0.38;;;;;19.10;100100.00;;;;5098609;28;20051;-78
2021/12/26 01:32:49;;;;;;;0.20;0.20;;;;;19.10;100089.00;;;;5094403;28;20057;-78
2021/12/26 01:35:38;;;;;;;0.22;0.10;;;;;19.10;100089.00;;;;5098479;28;20055;-76
2021/12/26 01:38:20;;;;;;;1.50;0.88;;;;;19.10;100073.00;;;;5094241;28;20059;-78
2021/12/26 01:41:11;;;;;;;0.20;0.20;;;;;19.10;100088.00;;;;5093641;28;20051;-78
2021/12/26 01:44:17;;;;;;;1.25;0.65;;;;;19.10;100078.00;;;;5043840;28;20045;-77
2021/12/26 01:46:49;;;;;;;0.65;0.32;;;;;19.10;100069.00;;;;5086694;28;20044;-76
2021/12/26 01:49:28;;;;;;;0.00;0.00;;;;;19.00;100068.00;;;;5112288;27;20590;-77
2021/12/26 01:52:02;;;;;;;0.60;0.60;;;;;19.00;100073.00;;;;5094789;28;20036;-77
2021/12/26 01:54:42;;;;;;;1.65;0.75;;;;;19.00;100065.00;;;;5095691;28;20125;-77
2021/12/26 01:57:17;;;;;;;0.40;0.25;;;;;19.00;100061.00;;;;5096170;28;20510;-76
2021/12/26 01:59:49;;;;;;;0.30;0.20;;;;;19.00;100068.00;;;;5095150;28;20055;-76
2021/12/26 02:02:23;;;;;;;2.92;0.63;;;;;19.00;100082.00;;;;5094967;28;20050;-76
2021/12/26 02:04:53;;;;;;;0.08;0.08;;;;;18.90;100087.00;;;;5093397;28;20093;-76
2021/12/26 02:07:25;;;;;;;0.00;0.00;;;;;18.90;100087.00;;;;5095327;28;20040;-76
2021/12/26 02:09:55;;;;;;;0.00;0.00;;;;;18.80;100060.00;;;;5095563;28;20403;-76
2021/12/26 02:12:26;;;;;;;0.00;0.00;;;;;18.70;100065.00;;;;5094623;28;20044;-76
2021/12/26 02:14:55;;;;;;;0.00;0.00;;;;;18.50;100091.00;;;;5095880;28;20494;-78
2021/12/26 02:17:40;;;;;;;0.00;0.00;;;;;18.40;100079.00;;;;5095944;28;20054;-79
2021/12/26 02:23:20;;;;;;;0.00;0.00;;;;;18.30;100093.00;;;;5070027;28;20055;-80
2021/12/26 02:28:42;;;;;;;0.00;0.00;;;;;18.40;100076.00;;;;5085713;28;20612;-80
2021/12/26 02:31:13;;;;;;;0.00;0.00;;;;;18.40;100100.00;;;;5084306;28;20040;-78
2021/12/26 02:33:43;;;;;;;0.00;0.00;;;;;18.30;100078.00;;;;5086320;28;20044;-77
2021/12/26 02:36:13;;;;;;;0.00;0.00;;;;;18.30;100070.00;;;;5088850;28;20040;-81
2021/12/26 02:38:43;;;;;;;0.00;0.00;;;;;18.20;100063.00;;;;5092485;28;20036;-78
2021/12/26 02:41:13;;;;;;;0.52;0.43;;;;;18.20;100074.00;;;;5083114;28;20044;-80
2021/12/26 02:43:43;;;;;;;2.20;1.08;;;;;18.20;100082.00;;;;5086003;28;20134;-79
2021/12/26 02:46:13;;;;;;;2.03;0.20;;;;;18.20;100063.00;;;;5088504;28;20052;-78
2021/12/26 02:48:43;;;;;;;0.10;0.10;;;;;18.20;100067.00;;;;5088583;28;20052;-77
2021/12/26 02:51:13;;;;;;;0.08;0.08;;;;;18.10;100061.00;;;;5088001;28;20515;-79
2021/12/26 02:53:42;;;;;;;0.15;0.15;;;;;18.20;100064.00;;;;5089151;28;20056;-78
2021/12/26 02:56:12;;;;;;;0.00;0.00;;;;;18.20;100062.00;;;;5090085;28;20044;-80
2021/12/26 02:58:42;;;;;;;0.00;0.00;;;;;18.20;100032.00;;;;5087977;28;20471;-78
2021/12/26 03:01:23;;;;;;;0.00;0.00;;;;;18.10;100042.00;;;;5089200;28;20070;-80
2021/12/26 03:03:54;;;;;;;0.00;0.00;;;;;18.10;100040.00;;;;5088770;28;20373;-79
2021/12/26 03:06:37;;;;;;;0.00;0.00;;;;;18.10;100052.00;;;;5088857;28;20063;-77
2021/12/26 03:09:07;;;;;;;0.00;0.00;;;;;18.00;100039.00;;;;5090336;28;20093;-77
2021/12/26 03:11:38;;;;;;;0.08;0.08;;;;;18.10;100034.00;;;;5090241;28;20048;-79
2021/12/26 03:14:07;;;;;;;0.00;0.00;;;;;18.10;100031.00;;;;5089877;28;20063;-79
2021/12/26 03:16:37;;;;;;;0.00;0.00;;;;;18.00;100038.00;;;;5088664;28;20055;-80
2021/12/26 03:19:07;;;;;;;4.47;0.93;;;;;18.10;100033.00;;;;5088983;28;20051;-77
2021/12/26 03:21:37;;;;;;;0.00;0.00;;;;;18.10;100007.00;;;;5089680;28;20047;-78
2021/12/26 03:24:08;;;;;;;0.00;0.00;;;;;18.00;100016.00;;;;5090484;28;20593;-77
2021/12/26 03:26:38;;;;;;;0.00;0.00;;;;;18.00;99996.00;;;;5088131;28;20142;-77
2021/12/26 03:29:07;;;;;;;0.00;0.00;;;;;18.00;100020.00;;;;5088435;28;20071;-76
2021/12/26 03:31:39;;;;;;;0.00;0.00;;;;;18.00;100010.00;;;;5087897;28;20055;-80
2021/12/26 03:34:08;;;;;;;;;;;;;18.00;100016.00;;;;5089142;28;20044;-80
2021/12/26 03:36:39;;;;;;;0.00;0.00;;;;;17.90;99984.00;;;;5088067;28;19945;-76
2021/12/26 03:39:08;;;;;;;0.00;0.00;;;;;17.90;99983.00;;;;5088349;28;20048;-80
2021/12/26 03:41:38;;;;;;;0.05;0.05;;;;;17.90;99977.00;;;;5088531;28;20472;-76
2021/12/26 03:44:07;;;;;;;0.03;0.03;;;;;18.00;99992.00;;;;5088329;28;20067;-79
2021/12/26 03:46:38;;;;;;;0.00;0.00;;;;;18.00;99999.00;;;;5090998;28;20635;-76
2021/12/26 03:49:07;;;;;;;0.00;0.00;;;;;17.90;99984.00;;;;5098655;28;20044;-76
2021/12/26 03:51:38;;;;;;;0.00;0.00;;;;;17.90;99991.00;;;;5091894;28;20051;-79
2021/12/26 03:54:07;;;;;;;0.00;0.00;;;;;17.80;99967.00;;;;5088873;28;20122;-76
2021/12/26 03:56:38;;;;;;;;;;;;;17.90;99983.00;;;;5089697;28;20047;-77
2021/12/26 03:59:13;;;;;;;0.00;0.00;;;;;17.90;99962.00;;;;5088523;28;19931;-79
2021/12/26 04:01:43;;;;;;;0.00;0.00;;;;;17.90;99976.00;;;;5088597;28;20082;-76
2021/12/26 04:04:13;;;;;;;0.00;0.00;;;;;17.90;99985.00;;;;5087595;28;20087;-81
2021/12/26 04:06:43;;;;;;;0.00;0.00;;;;;17.90;99969.00;;;;5088979;28;20138;-79
2021/12/26 04:09:13;;;;;;;0.00;0.00;;;;;18.00;99988.00;;;;5087376;28;20072;-79
2021/12/26 04:11:45;;;;;;;0.00;0.00;;;;;18.00;99986.00;;;;5088262;28;20076;-78
2021/12/26 04:14:16;;;;;;;0.00;0.00;;;;;18.10;99980.00;;;;5089468;28;20048;-77
2021/12/26 04:16:46;;;;;;;0.00;0.00;;;;;18.10;99965.00;;;;5089363;28;20048;-78
2021/12/26 04:19:16;;;;;;;0.15;0.15;;;;;18.10;99966.00;;;;5087580;28;20062;-78
2021/12/26 04:21:46;;;;;;;0.00;0.00;;;;;18.00;99971.00;;;;5088357;28;20044;-80
2021/12/26 04:24:15;;;;;;;0.00;0.00;;;;;18.00;99954.00;;;;5087472;28;21233;-76
2021/12/26 04:26:44;;;;;;;0.00;0.00;;;;;18.00;99971.00;;;;5087700;28;20056;-79
2021/12/26 04:29:14;;;;;;;0.00;0.00;;;;;17.90;99949.00;;;;5088618;28;20048;-79
2021/12/26 04:31:43;;;;;;;0.00;0.00;;;;;17.90;99963.00;;;;5088167;28;20074;-81
2021/12/26 04:34:13;;;;;;;0.00;0.00;;;;;17.80;99967.00;;;;5087531;28;20088;-78
2021/12/26 04:36:43;;;;;;;0.00;0.00;;;;;17.80;99956.00;;;;5087739;28;20071;-77
2021/12/26 04:39:14;;;;;;;0.00;0.00;;;;;17.70;99954.00;;;;5070558;28;20056;-74
2021/12/26 04:41:45;;;;;;;0.00;0.00;;;;;17.60;99975.00;;;;5087509;28;20054;-76
2021/12/26 04:44:42;;;;;;;0.00;0.00;;;;;17.50;99953.00;;;;5086508;28;20135;-79
2021/12/26 04:47:38;;;;;;;0.00;0.00;;;;;17.40;99962.00;;;;5056369;28;20582;-77
2021/12/26 04:50:14;;;;;;;0.10;0.10;;;;;17.40;99938.00;;;;5087041;28;20044;-76
2021/12/26 04:52:48;;;;;;;0.10;0.10;;;;;17.50;99926.00;;;;5087002;28;20087;-80
2021/12/26 04:55:24;;;;;;;0.00;0.00;;;;;17.50;99957.00;;;;5086834;28;20792;-78
2021/12/26 04:57:55;;;;;;;0.00;0.00;;;;;17.40;99948.00;;;;5086804;28;20044;-77
2021/12/26 05:00:28;;;;;;;0.00;0.00;;;;;17.30;99966.00;;;;5087019;28;20567;-75
2021/12/26 05:03:03;;;;;;;0.00;0.00;;;;;17.30;99930.00;;;;5088192;28;20151;-78
2021/12/26 05:05:35;;;;;;;0.00;0.00;;;;;17.20;99948.00;;;;5087401;28;20055;-80
2021/12/26 05:08:05;;;;;;;0.00;0.00;;;;;17.20;99946.00;;;;5088016;28;20047;-79
2021/12/26 05:10:35;;;;;;;0.00;0.00;;;;;17.20;99944.00;;;;5088024;28;20055;-77
2021/12/26 05:13:05;;;;;;;0.00;0.00;;;;;17.20;99938.00;;;;5086239;28;20063;-80
2021/12/26 05:15:36;;;;;;;0.00;0.00;;;;;17.20;99947.00;;;;5086803;28;20158;-80
2021/12/26 05:18:06;;;;;;;0.00;0.00;;;;;17.20;99927.00;;;;5086342;28;20047;-81
2021/12/26 05:20:37;;;;;;;0.00;0.00;;;;;17.10;99940.00;;;;5086385;28;20086;-81
2021/12/26 05:23:07;;;;;;;0.00;0.00;;;;;17.10;99936.00;;;;5086431;28;20052;-78
2021/12/26 05:25:36;;;;;;;0.47;0.13;;;;;17.10;99954.00;;;;5086849;28;20048;-80
2021/12/26 05:28:06;;;;;;;0.00;0.00;;;;;17.20;99949.00;;;;5085859;28;20511;-74
2021/12/26 05:30:37;;;;;;;0.00;0.00;;;;;17.20;99959.00;;;;5086139;28;20499;-75
2021/12/26 05:33:34;;;;;;;0.00;0.00;;;;;17.20;99960.00;;;;5085063;28;20771;-77
2021/12/26 05:36:06;;;;;;;2.00;0.17;;;;;17.20;99968.00;;;;5086147;28;20128;-76
2021/12/26 05:38:39;;;;;;;0.03;0.03;;;;;17.20;99944.00;;;;5086652;28;20062;-76
2021/12/26 05:41:10;;;;;;;0.00;0.00;;;;;17.20;99952.00;;;;5086170;28;20052;-80
2021/12/26 05:43:50;;;;;;;0.00;0.00;;;;;17.30;99949.00;;;;5085827;28;20052;-76
2021/12/26 05:46:21;;;;;;;0.00;0.00;;;;;17.20;99958.00;;;;5085502;28;20044;-76
2021/12/26 05:48:51;;;;;;;0.00;0.00;;;;;17.20;99941.00;;;;5085805;28;20490;-76
2021/12/26 05:51:29;;;;;;;0.00;0.00;;;;;17.10;99932.00;;;;5085080;28;20050;-76
2021/12/26 05:54:17;;;;;;;0.00;0.00;;;;;17.20;99954.00;;;;5086214;28;20059;-76
2021/12/26 05:56:49;;;;;;;0.00;0.00;;;;;17.20;99941.00;;;;5086790;28;20066;-76
2021/12/26 05:59:20;;;;;;;0.00;0.00;;;;;17.20;99943.00;;;;5085441;28;20134;-76
2021/12/26 06:01:49;;;;;;;0.00;0.00;;;;;17.20;99946.00;;;;5068085;28;20048;-75
2021/12/26 06:04:19;;;;;;;0.00;0.00;;;;;17.20;99953.00;;;;5085444;28;20064;-76
2021/12/26 06:06:48;;;;;;;0.00;0.00;;;;;17.10;99962.00;;;;5085827;28;20048;-76
2021/12/26 06:09:19;;;;;;;0.00;0.00;;;;;17.10;99965.00;;;;5084983;28;20059;-76
2021/12/26 06:11:48;;;;;;;0.00;0.00;;;;;17.10;99954.00;;;;5085165;28;20301;-76
2021/12/26 06:14:18;;;;;;;0.00;0.00;;;;;17.10;99971.00;;;;5067884;28;20105;-75
2021/12/26 06:16:48;;;;;;;1.88;0.45;;;;;17.10;99950.00;;;;5086343;28;20051;-76
2021/12/26 06:19:41;;;;;;;0.00;0.00;;;;;17.20;99956.00;;;;5057182;28;20052;-76
2021/12/26 06:22:28;;;;;;;0.00;0.00;;;;;17.20;99933.00;;;;5084749;28;20056;-76
2021/12/26 06:25:18;;;;;;;0.00;0.00;;;;;17.20;99931.00;;;;5044355;28;20624;-76
2021/12/26 06:28:00;;;;;;;0.00;0.00;;;;;17.10;99958.00;;;;5084888;28;20047;-76
2021/12/26 06:31:05;;;;;;;1.77;0.65;;;;;17.10;99944.00;;;;5003335;28;20164;-76
2021/12/26 06:33:53;;;;;;;0.00;0.00;;;;;17.20;99937.00;;;;5081832;28;20067;-75
2021/12/26 06:36:41;;;;;;;0.00;0.00;;;;;17.20;99938.00;;;;5086066;28;20423;-76
2021/12/26 06:39:29;;;;;;;1.05;1.05;;;;;17.20;99952.00;;;;5086322;28;20506;-76
2021/12/26 06:42:17;;;;;;;0.15;0.13;;;;;17.20;99941.00;;;;5085026;28;20109;-76
2021/12/26 06:45:05;;;;;;;0.00;0.00;;;;;17.30;99955.00;;;;5085986;28;20051;-76
2021/12/26 06:48:07;;;;;;;0.00;0.00;;;;;17.20;99959.00;;;;5013145;28;20513;-76
2021/12/26 06:50:39;;;;;;;0.03;0.03;;;;;17.20;99967.00;;;;5085187;28;20090;-75
2021/12/26 06:53:09;;;;;;;0.40;0.40;;;;;17.20;99928.00;;;;5085759;28;20048;-76
2021/12/26 06:55:38;;;;;;;0.00;0.00;;;;;17.10;99949.00;;;;5086274;28;20526;-76
2021/12/26 06:58:11;;;;;;;0.00;0.00;;;;;17.00;99972.00;;;;5086178;28;20075;-76
2021/12/26 07:00:41;;;;;;;0.00;0.00;;;;;17.10;99965.00;;;;5085743;28;20048;-76
2021/12/26 07:03:12;;;;;;;0.00;0.00;;;;;17.00;99944.00;;;;5083949;28;20159;-76
2021/12/26 07:05:42;;;;;;;0.00;0.00;;;;;16.90;99974.00;;;;5084708;28;20068;-76
2021/12/26 07:08:14;;;;;;;0.00;0.00;;;;;16.90;99951.00;;;;5083930;28;20047;-76
2021/12/26 07:10:53;;;;;;;0.00;0.00;;;;;16.90;99960.00;;;;5084421;28;20052;-76
2021/12/26 07:13:22;;;;;;;0.00;0.00;;;;;16.90;99961.00;;;;5084454;28;20044;-76
2021/12/26 07:15:52;;;;;;;0.00;0.00;;;;;16.90;100002.00;;;;5084232;28;20040;-75
2021/12/26 07:18:22;;;;;;;0.00;0.00;;;;;16.80;99991.00;;;;5084541;28;20048;-75
2021/12/26 07:20:52;;;;;;;0.00;0.00;;;;;16.80;99998.00;;;;5084525;28;20048;-76
2021/12/26 07:23:22;;;;;;;0.00;0.00;;;;;16.90;100003.00;;;;5086087;28;20044;-76
2021/12/26 07:25:57;;;;;;;0.00;0.00;;;;;16.90;100004.00;;;;5084523;28;20039;-76
2021/12/26 07:28:28;;;;;;;0.00;0.00;;;;;16.90;100010.00;;;;5085328;28;20418;-76
2021/12/26 07:31:11;;;;;;;0.00;0.00;;;;;16.80;100021.00;;;;5087756;28;20075;-76
2021/12/26 07:33:43;;;;;;;0.00;0.00;;;;;16.70;99990.00;;;;5089063;28;20039;-76
2021/12/26 07:36:13;;;;;;;0.00;0.00;;;;;16.70;100006.00;;;;5088290;28;20811;-75
2021/12/26 07:38:46;;;;;;;0.00;0.00;;;;;16.60;100011.00;;;;5089665;28;20052;-76
2021/12/26 07:41:28;;;;;;;0.10;0.10;;;;;16.60;100022.00;;;;5087591;28;20155;-76
2021/12/26 07:44:00;;;;;;;0.00;0.00;;;;;16.70;100020.00;;;;5087612;28;20099;-76
2021/12/26 07:46:49;;;;;;;0.00;0.00;;;;;16.80;100018.00;;;;5089697;28;20125;-75
2021/12/26 07:49:21;;;;;;;0.00;0.00;;;;;16.60;100029.00;;;;5088440;28;20048;-75
2021/12/26 07:52:17;;;;;;;0.00;0.00;;;;;16.60;100003.00;;;;5089040;28;20085;-76
2021/12/26 07:55:09;;;;;;;0.00;0.00;;;;;16.70;99993.00;;;;5088799;28;20055;-76
2021/12/26 07:57:57;;;;;;;0.00;0.00;;;;;16.60;100027.00;;;;5088701;28;20070;-76
2021/12/26 08:00:45;;;;;;;0.00;0.00;;;;;16.60;100032.00;;;;5089195;28;20426;-76
2021/12/26 08:03:39;;;;;;;0.00;0.00;;;;;16.60;100018.00;;;;5058901;28;20064;-76
2021/12/26 08:06:30;;;;;;;0.00;0.00;;;;;16.50;100038.00;;;;5088689;28;20121;-76
2021/12/26 08:09:00;;;;;;;0.00;0.00;;;;;16.50;100031.00;;;;5087425;28;20044;-76
2021/12/26 08:11:30;;;;;;;0.00;0.00;;;;;16.50;100044.00;;;;5087527;28;20044;-76
2021/12/26 08:13:59;;;;;;;0.00;0.00;;;;;16.50;100030.00;;;;5088153;28;20060;-76
2021/12/26 08:16:28;;;;;;;0.00;0.00;;;;;16.40;100025.00;;;;5088736;28;20055;-76
2021/12/26 08:18:58;;;;;;;0.00;0.00;;;;;16.40;100058.00;;;;5089082;28;20526;-75
2021/12/26 08:21:28;;;;;;;0.00;0.00;;;;;16.40;100054.00;;;;5088198;28;20465;-76
2021/12/26 08:23:57;;;;;;;0.00;0.00;;;;;16.30;100045.00;;;;5088165;28;20106;-76
2021/12/26 08:26:27;;;;;;;0.00;0.00;;;;;16.40;100048.00;;;;5088378;28;20487;-76
2021/12/26 08:28:56;;;;;;;0.00;0.00;;;;;16.40;100030.00;;;;5088829;28;20048;-75
2021/12/26 08:31:26;;;;;;;0.00;0.00;;;;;16.60;100046.00;;;;5088310;28;20048;-75
2021/12/26 08:33:55;;;;;;;0.00;0.00;;;;;16.60;100034.00;;;;5088060;28;20045;-75
2021/12/26 08:36:25;;;;;;;0.00;0.00;;;;;16.70;100032.00;;;;5087131;28;20059;-76
2021/12/26 08:38:54;;;;;;;0.00;0.00;;;;;16.80;100036.00;;;;5088564;28;20062;-76
2021/12/26 08:41:23;;;;;;;0.00;0.00;;;;;16.90;100040.00;;;;5087741;28;20044;-76
2021/12/26 08:43:53;;;;;;;0.00;0.00;;;;;16.90;100067.00;;;;5088173;28;20057;-75
2021/12/26 08:46:23;;;;;;;0.00;0.00;;;;;17.00;100063.00;;;;5087484;28;20044;-76
2021/12/26 08:48:53;;;;;;;0.00;0.00;;;;;17.10;100078.00;;;;5088286;28;20543;-76
2021/12/26 08:51:23;;;;;;;0.00;0.00;;;;;17.20;100081.00;;;;5087857;28;20063;-76
2021/12/26 08:53:52;;;;;;;0.68;0.68;;;;;17.30;100049.00;;;;5087708;28;20525;-75
2021/12/26 08:56:21;;;;;;;0.00;0.00;;;;;17.40;100070.00;;;;5087415;28;20047;-76
2021/12/26 08:58:51;;;;;;;0.00;0.00;;;;;17.50;100061.00;;;;5087980;28;20503;-76
2021/12/26 09:01:21;;;;;;;0.00;0.00;;;;;17.60;100059.00;;;;5087997;28;20052;-76
2021/12/26 09:03:51;;;;;;;0.00;0.00;;;;;17.80;100069.00;;;;5087609;28;20559;-75
2021/12/26 09:06:20;;;;;;;0.00;0.00;;;;;17.90;100078.00;;;;5087350;28;20044;-76
2021/12/26 09:08:50;;;;;;;0.00;0.00;;;;;18.10;100047.00;;;;5088160;28;20457;-76
2021/12/26 09:11:20;;;;;;;0.00;0.00;;;;;18.20;100087.00;;;;5086950;28;20042;-75
2021/12/26 09:13:52;;;;;;;0.00;0.00;;;;;18.30;100055.00;;;;5086939;28;20077;-76
2021/12/26 09:16:22;;;;;;;0.00;0.00;;;;;18.40;100080.00;;;;5087987;28;20138;-76
2021/12/26 09:18:52;;;;;;;0.25;0.13;;;;;18.30;100079.00;;;;5086895;28;20078;-76
2021/12/26 09:21:21;;;;;;;0.00;0.00;;;;;18.40;100063.00;;;;5087189;28;20135;-76
2021/12/26 09:23:51;;;;;;;0.00;0.00;;;;;18.50;100060.00;;;;5087519;28;20055;-76
2021/12/26 09:26:21;;;;;;;0.00;0.00;;;;;18.50;100058.00;;;;5087433;28;20499;-76
2021/12/26 09:28:51;;;;;;;0.00;0.00;;;;;18.60;100087.00;;;;5087694;28;20048;-76
2021/12/26 09:31:20;;;;;;;0.00;0.00;;;;;19.00;100022.00;;;;5087465;28;20418;-76
2021/12/26 09:33:50;;;;;;;0.00;0.00;;;;;19.60;100045.00;;;;5087406;28;20552;-76
2021/12/26 09:36:19;;;;;;;0.00;0.00;;;;;21.70;99915.00;;;;5086921;28;20070;-76
2021/12/26 09:38:49;;;;;;;0.00;0.00;;;;;22.20;100048.00;;;;5087006;28;20047;-76
2021/12/26 09:41:18;;;;;;;0.00;0.00;;;;;21.30;100076.00;;;;5087124;28;20422;-76
2021/12/26 09:43:48;;;;;;;0.00;0.00;;;;;21.40;100025.00;;;;5087090;28;20123;-76
2021/12/26 09:46:17;;;;;;;0.00;0.00;;;;;21.80;100084.00;;;;5087042;28;20032;-77
2021/12/26 09:48:47;;;;;;;0.00;0.00;;;;;22.20;100047.00;;;;5086720;28;20071;-76
2021/12/26 09:51:20;;;;;;;0.00;0.00;;;;;21.70;100116.00;;;;5086761;28;20032;-76
2021/12/26 09:53:50;;;;;;;0.00;0.00;;;;;21.30;100116.00;;;;5086910;28;20054;-77
2021/12/26 09:56:20;;;;;;;0.00;0.00;;;;;21.30;100115.00;;;;5086857;28;20044;-76
2021/12/26 09:59:00;;;;;;;0.00;0.00;;;;;21.50;100123.00;;;;5086658;28;20055;-76
2021/12/26 10:01:40;;;;;;;0.00;0.00;;;;;21.50;100107.00;;;;5086500;28;20399;-76
2021/12/26 10:04:27;;;;;;;0.08;0.08;;;;;21.80;100126.00;;;;5085426;28;20060;-76
2021/12/26 10:07:06;;;;;;;0.15;0.15;;;;;22.10;100119.00;;;;5086776;28;20074;-76
2021/12/26 10:09:41;;;;;;;0.17;0.17;;;;;22.30;100118.00;;;;5086769;28;20123;-76
2021/12/26 10:12:15;;;;;;;0.00;0.00;;;;;22.50;100085.00;;;;5087465;28;20567;-76
2021/12/26 10:14:49;;;;;;;0.00;0.00;;;;;22.60;100111.00;;;;5086474;28;20086;-76
2021/12/26 10:17:26;;;;;;;0.20;0.20;;;;;22.90;100082.00;;;;5084884;28;20044;-75
2021/12/26 10:20:09;;;;;;;26.23;23.48;;;;;23.20;100111.00;;;;5086434;28;20063;-75
2021/12/26 10:22:39;;;;;;;0.28;0.25;;;;;24.10;100050.00;;;;5086595;28;20109;-76
2021/12/26 10:25:11;;;;;;;1.08;0.38;;;;;24.50;100084.00;;;;5086964;28;20052;-75
2021/12/26 10:27:43;;;;;;;0.40;0.32;;;;;24.10;100034.00;;;;5086474;28;20519;-76
2021/12/26 10:30:17;;;;;;;4.13;0.65;;;;;23.90;100096.00;;;;5086720;28;20509;-76
2021/12/26 10:32:47;;;;;;;0.10;0.10;;;;;25.00;100100.00;;;;5086525;28;20048;-76
2021/12/26 10:35:18;;;;;;;0.00;0.00;;;;;23.50;100113.00;;;;5085899;28;20047;-76
2021/12/26 10:37:51;;;;;;;0.00;0.00;;;;;23.10;100118.00;;;;5084655;28;20156;-76
2021/12/26 10:40:29;;;;;;;0.00;0.00;;;;;23.00;100138.00;;;;5084571;28;20055;-76
2021/12/26 10:43:10;;;;;;;0.00;0.00;;;;;23.10;100120.00;;;;5084707;28;20736;-76
2021/12/26 10:45:40;;;;;;;0.00;0.00;;;;;23.30;100123.00;;;;5086669;28;20058;-76
2021/12/26 10:48:10;;;;;;;0.08;0.08;;;;;23.40;100152.00;;;;5086425;28;20048;-76
2021/12/26 10:50:41;;;;;;;0.00;0.00;;;;;23.60;100136.00;;;;5086728;28;20050;-76
2021/12/26 10:53:14;;;;;;;0.45;0.35;;;;;23.80;100119.00;;;;5086394;28;20136;-76
2021/12/26 10:55:55;;;;;;;0.10;0.10;;;;;24.00;100108.00;;;;5085639;28;20059;-76
2021/12/26 10:58:27;;;;;;;1.45;0.60;;;;;24.40;100115.00;;;;5086357;28;20051;-76
2021/12/26 11:00:58;;;;;;;2.42;0.50;;;;;24.00;100130.00;;;;5086280;28;20418;-76
2021/12/26 11:03:31;;;;;;;0.00;0.00;;;;;24.10;100130.00;;;;5086321;28;20044;-76
2021/12/26 11:06:03;;;;;;;0.52;0.38;;;;;24.50;100114.00;;;;5087848;28;20078;-76
2021/12/26 11:08:42;;;;;;;0.00;0.00;;;;;24.70;100119.00;;;;5090772;28;20035;-76
2021/12/26 11:11:20;;;;;;;0.00;0.00;;;;;25.10;100102.00;;;;5090372;28;20079;-76
2021/12/26 11:14:00;;;;;;;0.05;0.05;;;;;28.00;100036.00;;;;5089495;28;20054;-76
2021/12/26 11:16:40;;;;;;;0.00;0.00;;;;;27.90;100096.00;;;;5090483;28;20067;-76
2021/12/26 11:19:10;;;;;;;0.05;0.05;;;;;25.90;100116.00;;;;5089995;28;20135;-76
2021/12/26 11:21:39;;;;;;;0.00;0.00;;;;;24.90;100123.00;;;;5088132;28;20109;-76
2021/12/26 11:24:08;;;;;;;0.20;0.10;;;;;24.60;100113.00;;;;5087638;28;20048;-76
2021/12/26 11:26:38;;;;;;;2.72;0.98;;;;;24.70;100136.00;;;;5090569;28;20089;-76
2021/12/26 11:29:08;;;;;;;2.40;1.58;;;;;24.80;100106.00;;;;5089617;28;20511;-76
2021/12/26 11:31:37;;;;;;;0.03;0.03;;;;;24.60;100121.00;;;;5089316;28;20044;-76
2021/12/26 11:34:09;;;;;;;0.00;0.00;;;;;24.50;100108.00;;;;5088116;28;20051;-76
2021/12/26 11:36:40;;;;;;;0.00;0.00;;;;;24.30;100098.00;;;;5089391;28;20048;-77
2021/12/26 11:39:32;;;;;;;0.03;0.03;;;;;24.10;100125.00;;;;5088010;28;20503;-76
2021/12/26 11:42:37;;;;;;;7.13;1.75;;;;;23.90;100131.00;;;;5089963;28;20132;-76
2021/12/26 11:45:52;;;;;;;1.65;1.55;;;;;23.70;100121.00;;;;5065470;28;20570;-78
2021/12/26 11:48:44;;;;;;;;;;;;;23.40;100124.00;;;;5090216;28;20058;-80
2021/12/26 11:52:19;;;;;;;0.00;0.00;;;;;23.20;100111.00;;;;5091317;28;19931;-77
2021/12/26 11:55:38;;;;;;;0.05;0.00;;;;;23.20;100107.00;;;;5069901;28;20419;-74
2021/12/26 11:58:31;;;;;;;0.43;0.25;;;;;23.20;100082.00;;;;5087124;28;20058;-74
2021/12/26 12:01:03;;;;;;;0.35;0.25;;;;;23.00;100069.00;;;;5088523;28;20044;-73
2021/12/26 12:03:33;;;;;;;4.75;0.32;;;;;23.00;100088.00;;;;5088925;28;20048;-74
2021/12/26 12:06:02;;;;;;;0.00;0.00;;;;;22.90;100096.00;;;;5088997;28;20118;-77
2021/12/26 12:08:34;;;;;;;0.00;0.00;;;;;22.90;100121.00;;;;5089981;28;20661;-75
2021/12/26 12:11:08;;;;;;;0.08;0.08;;;;;23.00;100093.00;;;;5089500;28;20148;-75
2021/12/26 12:13:53;;;;;;;1.40;0.43;;;;;23.10;100102.00;;;;5088695;28;20086;-75
2021/12/26 12:16:23;;;;;;;0.10;0.10;;;;;23.10;100102.00;;;;5089056;28;20044;-76
2021/12/26 12:18:56;;;;;;;0.00;0.00;;;;;23.30;100098.00;;;;5088057;28;20822;-75
2021/12/26 12:21:36;;;;;;;0.00;0.00;;;;;23.40;100094.00;;;;5088339;28;20048;-75
2021/12/26 12:24:25;;;;;;;0.45;0.35;;;;;23.50;100081.00;;;;5088505;28;20039;-75
2021/12/26 12:26:57;;;;;;;0.10;0.10;;;;;23.70;100064.00;;;;5092234;28;20063;-75
2021/12/26 12:29:29;;;;;;;0.00;0.00;;;;;23.90;100066.00;;;;5099097;28;20070;-76
2021/12/26 12:32:07;;;;;;;0.68;0.63;;;;;24.20;100065.00;;;;5106579;28;20039;-76
2021/12/26 12:34:53;;;;;;;41.65;28.30;;;;;24.30;100056.00;;;;5109321;28;20039;-74
2021/12/26 12:37:40;;;;;;;0.00;0.00;;;;;24.50;100035.00;;;;5109806;28;20088;-73
2021/12/26 12:40:29;;;;;;;0.00;0.00;;;;;24.80;100058.00;;;;5109394;28;20621;-73
2021/12/26 12:43:12;;;;;;;0.00;0.00;;;;;24.90;100059.00;;;;5107546;28;20075;-74
2021/12/26 12:45:55;;;;;;;0.00;0.00;;;;;25.30;100064.00;;;;5108001;28;20036;-75
2021/12/26 12:48:28;;;;;;;0.00;0.00;;;;;25.80;100043.00;;;;5108798;28;20122;-74
2021/12/26 12:51:15;;;;;;;0.10;0.10;;;;;26.50;100045.00;;;;5108598;28;20602;-74
2021/12/26 12:54:30;;;;;;;0.10;0.10;;;;;26.80;100030.00;;;;5108215;28;20050;-74